Columbia, Tennessee
Current Conditions -  °F | °C
As of 1:15 PM on Friday 24 Oct 2014 (Local Time) from KMRC Reporting Station
NA  
Wind Chill: 68°   Ceiling: NA
Heat Index: 68°   Visibility: NA
Dew Point: 43°   Wind: 5mph
Humidity: 40%   Direction: 350°N
Pressure: 30.08"   Gusts: NA
Location:  35.62°N, 87.03°W
Report Text: KMRC 241815Z AUTO 35004KT 20/06 A3008 RMK
Loading
Personal Weather Stations






























Interactive Weather Map
Tropical Storm Tracking
New forecast layout! Learn more

10-Day Weather Forecast

Advertisements
Track Severe Weather on mobile